Time;durP1;ratioP1;P1;durP2;ratioP2;P2;SDS_P1;SDS_P2;PMS_P1;PMS_P2;Temp;Humidity;BMP_temperature;BMP_pressure;BME280_temperature;BME280_humidity;BME280_pressure;Samples;Min_cycle;Max_cycle;Signal;HPM_P1;HPM_P2
2024/02/29 00:00:01;;;;;;;;;;;;;;;7.43;100.00;96961.72;107041;1299;22541;-87
2024/02/29 00:02:28;;;;;;;;;;;;;;;7.44;100.00;96963.66;106946;1300;22977;-85
2024/02/29 00:04:54;;;;;;;;;;;;;;;7.48;100.00;96962.77;107032;1300;22531;-85
2024/02/29 00:07:21;;;;;;;;;;;;;;;7.48;100.00;96959.26;106942;1301;22573;-85
2024/02/29 00:09:47;;;;;;;;;;;;;;;7.50;100.00;96959.12;106811;1300;22530;-85
2024/02/29 00:12:14;;;;;;;;;;;;;;;7.49;100.00;96954.84;107019;1300;22556;-89
2024/02/29 00:14:42;;;;;;;;;;;;;;;7.45;100.00;96959.24;107012;1294;22550;-88
2024/02/29 00:17:10;;;;;;;;;;;;;;;7.46;100.00;96958.80;106931;1294;22537;-88
2024/02/29 00:19:37;;;;;;;;;;;;;;;7.48;100.00;96956.67;106929;1296;22573;-88
2024/02/29 00:22:04;;;;;;;;;;;;;;;7.50;100.00;96957.15;107019;1300;22649;-89
2024/02/29 00:24:30;;;;;;;;;;;;;;;7.49;100.00;96958.66;106937;1295;22576;-89
2024/02/29 00:26:57;;;;;;;;;;;;;;;7.48;100.00;96956.20;106919;1300;24411;-88
2024/02/29 00:29:26;;;;;;;;;;;;;;;7.47;100.00;96955.45;107015;1300;22568;-89
2024/02/29 00:31:53;;;;;;;;;;;;;;;7.48;100.00;96954.44;107107;1298;22585;-88
2024/02/29 00:34:19;;;;;;;;;;;;;;;7.49;100.00;96954.36;106984;1294;22596;-87
2024/02/29 00:36:46;;;;;;;;;;;;;;;7.48;100.00;96951.02;106930;1300;22535;-87
2024/02/29 00:39:13;;;;;;;;;;;;;;;7.46;100.00;96951.04;107026;1298;22585;-87
2024/02/29 00:41:39;;;;;;;;;;;;;;;7.46;100.00;96955.89;107028;1298;24824;-87
2024/02/29 00:44:06;;;;;;;;;;;;;;;7.44;100.00;96953.48;107108;1299;22648;-88
2024/02/29 00:46:33;;;;;;;;;;;;;;;7.41;100.00;96955.11;106947;1301;22524;-88
2024/02/29 00:48:59;;;;;;;;;;;;;;;7.38;100.00;96953.73;106948;1300;22873;-88
2024/02/29 00:51:26;;;;;;;;;;;;;;;7.34;100.00;96954.64;107130;1298;22527;-88
2024/02/29 00:53:52;;;;;;;;;;;;;;;7.32;100.00;96957.39;106945;1300;22534;-90
2024/02/29 00:56:19;;;;;;;;;;;;;;;7.27;100.00;96958.23;106961;1300;22915;-89
2024/02/29 00:58:45;;;;;;;;;;;;;;;7.27;100.00;96954.10;107004;1300;22671;-89
2024/02/29 01:01:12;;;;;;;;;;;;;;;7.30;100.00;96950.40;106973;1298;23310;-88
2024/02/29 01:03:38;;;;;;;;;;;;;;;7.33;100.00;96948.06;107044;1300;22545;-88
2024/02/29 01:06:05;;;;;;;;;;;;;;;7.33;100.00;96943.20;107046;1299;22540;-88
2024/02/29 01:08:31;;;;;;;;;;;;;;;7.31;100.00;96944.06;106838;1292;22552;-88
2024/02/29 01:10:58;;;;;;;;;;;;;;;7.27;100.00;96943.41;106946;1300;22636;-88
2024/02/29 01:13:24;;;;;;;;;;;;;;;7.26;100.00;96938.69;107038;1300;22551;-88
2024/02/29 01:15:51;;;;;;;;;;;;;;;7.27;100.00;96933.77;107004;1295;23234;-88
2024/02/29 01:18:17;;;;;;;;;;;;;;;7.19;100.00;96934.83;106880;1297;25384;-89
2024/02/29 01:20:44;;;;;;;;;;;;;;;7.15;100.00;96932.66;106877;1301;24307;-89
2024/02/29 01:23:10;;;;;;;;;;;;;;;7.15;100.00;96929.70;107034;1300;23992;-89
2024/02/29 01:25:37;;;;;;;;;;;;;;;7.19;100.00;96930.61;106902;1301;23827;-88
2024/02/29 01:28:03;;;;;;;;;;;;;;;7.21;100.00;96932.38;107017;1300;24086;-88
2024/02/29 01:30:29;;;;;;;;;;;;;;;7.21;100.00;96931.92;107200;1297;22576;-89
2024/02/29 01:32:56;;;;;;;;;;;;;;;7.20;100.00;96933.15;106991;1298;24329;-89
2024/02/29 01:35:23;;;;;;;;;;;;;;;7.21;100.00;96931.60;106924;1294;22590;-89
2024/02/29 01:37:50;;;;;;;;;;;;;;;7.23;100.00;96930.14;106955;1292;22530;-89
2024/02/29 01:40:18;;;;;;;;;;;;;;;7.25;100.00;96935.54;107199;1300;22569;-89
2024/02/29 01:42:45;;;;;;;;;;;;;;;7.25;100.00;96934.95;107142;1298;22569;-89
2024/02/29 01:45:12;;;;;;;;;;;;;;;7.25;100.00;96934.80;107178;1296;22547;-88
2024/02/29 01:47:39;;;;;;;;;;;;;;;7.26;100.00;96929.80;106985;1285;22533;-88
2024/02/29 01:50:07;;;;;;;;;;;;;;;7.23;100.00;96929.70;106941;1295;22551;-88
2024/02/29 01:52:34;;;;;;;;;;;;;;;7.13;100.00;96933.19;106986;1300;22561;-88
2024/02/29 01:55:02;;;;;;;;;;;;;;;7.09;100.00;96934.15;106956;1285;23245;-88
2024/02/29 01:57:29;;;;;;;;;;;;;;;7.06;100.00;96933.19;107066;1300;22557;-88
2024/02/29 01:59:56;;;;;;;;;;;;;;;7.04;100.00;96935.64;106941;1300;24356;-88
2024/02/29 02:02:23;;;;;;;;;;;;;;;7.06;100.00;96931.52;107062;1299;22646;-88
2024/02/29 02:04:49;;;;;;;;;;;;;;;7.07;100.00;96926.52;106908;1297;24488;-88
2024/02/29 02:07:16;;;;;;;;;;;;;;;7.09;100.00;96926.34;106973;1300;22571;-88
2024/02/29 02:09:43;;;;;;;;;;;;;;;7.11;100.00;96926.98;107162;1289;22633;-89
2024/02/29 02:12:12;;;;;;;;;;;;;;;7.13;100.00;96926.25;106998;1301;22530;-88
2024/02/29 02:14:39;;;;;;;;;;;;;;;7.16;100.00;96926.22;106911;1298;22566;-88
2024/02/29 02:17:05;;;;;;;;;;;;;;;7.16;100.00;96924.80;107206;1299;25456;-89
2024/02/29 02:19:32;;;;;;;;;;;;;;;7.15;100.00;96919.25;107005;1293;22552;-88
2024/02/29 02:21:58;;;;;;;;;;;;;;;7.15;100.00;96917.10;107014;1300;24320;-88
2024/02/29 02:24:25;;;;;;;;;;;;;;;7.17;100.00;96914.25;107038;1296;22588;-88
2024/02/29 02:26:52;;;;;;;;;;;;;;;7.16;100.00;96913.14;106845;1300;22574;-88
2024/02/29 02:29:18;;;;;;;;;;;;;;;7.15;100.00;96911.31;106854;1299;22583;-88
2024/02/29 02:31:45;;;;;;;;;;;;;;;7.14;100.00;96912.20;106965;1295;22566;-88
2024/02/29 02:34:13;;;;;;;;;;;;;;;7.14;100.00;96912.23;107002;1300;22762;-88
2024/02/29 02:36:40;;;;;;;;;;;;;;;7.14;100.00;96910.13;107038;1300;22537;-89
2024/02/29 02:39:07;;;;;;;;;;;;;;;7.16;100.00;96906.06;107141;1300;22635;-87
2024/02/29 02:41:34;;;;;;;;;;;;;;;7.17;100.00;96907.61;106890;1300;22537;-88
2024/02/29 02:44:00;;;;;;;;;;;;;;;7.16;100.00;96906.71;107170;1300;22664;-88
2024/02/29 02:46:27;;;;;;;;;;;;;;;7.13;100.00;96905.12;106911;1299;25404;-88
2024/02/29 02:48:53;;;;;;;;;;;;;;;7.13;100.00;96906.98;107033;1298;22543;-88
2024/02/29 02:51:24;;;;;;;;;;;;;;;7.13;100.00;96906.60;106903;1301;24024;-88
2024/02/29 02:53:50;;;;;;;;;;;;;;;7.15;100.00;96906.61;107137;1300;22590;-88
2024/02/29 02:56:17;;;;;;;;;;;;;;;7.14;100.00;96910.30;107199;1300;22551;-89
2024/02/29 02:58:43;;;;;;;;;;;;;;;7.16;100.00;96911.21;107193;1296;22559;-88
2024/02/29 03:01:10;;;;;;;;;;;;;;;7.15;100.00;96907.17;107194;1300;25339;-89
2024/02/29 03:03:36;;;;;;;;;;;;;;;7.13;100.00;96914.27;107167;1299;24001;-88
2024/02/29 03:06:03;;;;;;;;;;;;;;;7.11;100.00;96913.34;107216;1293;25236;-89
2024/02/29 03:08:29;;;;;;;;;;;;;;;7.09;100.00;96910.19;106857;1300;22527;-89
2024/02/29 03:10:56;;;;;;;;;;;;;;;7.10;100.00;96914.69;106935;1300;22669;-88
2024/02/29 03:13:22;;;;;;;;;;;;;;;7.11;100.00;96913.73;107133;1300;23058;-88
2024/02/29 03:15:48;;;;;;;;;;;;;;;7.11;100.00;96910.98;107029;1298;22524;-88
2024/02/29 03:18:15;;;;;;;;;;;;;;;7.09;100.00;96910.86;107072;1296;22566;-87
2024/02/29 03:20:41;;;;;;;;;;;;;;;7.09;100.00;96910.51;106990;1295;22782;-88
2024/02/29 03:23:08;;;;;;;;;;;;;;;7.12;100.00;96910.00;106933;1295;22567;-87
2024/02/29 03:25:34;;;;;;;;;;;;;;;7.14;100.00;96910.30;107095;1295;25466;-88
2024/02/29 03:28:02;;;;;;;;;;;;;;;7.14;100.00;96911.02;107073;1295;22587;-88
2024/02/29 03:30:29;;;;;;;;;;;;;;;7.14;100.00;96913.43;106935;1300;22802;-88
2024/02/29 03:32:55;;;;;;;;;;;;;;;7.11;100.00;96913.02;107129;1300;23217;-89
2024/02/29 03:35:26;;;;;;;;;;;;;;;7.06;100.00;96911.36;106882;1301;22620;-88
2024/02/29 03:37:53;;;;;;;;;;;;;;;7.07;100.00;96911.86;106928;1297;22894;-88
2024/02/29 03:40:20;;;;;;;;;;;;;;;7.11;100.00;96912.08;107068;1301;22541;-88
2024/02/29 03:42:46;;;;;;;;;;;;;;;7.12;100.00;96910.41;106994;1295;24363;-88
2024/02/29 03:45:13;;;;;;;;;;;;;;;7.12;100.00;96907.41;107068;1295;23857;-88
2024/02/29 03:47:39;;;;;;;;;;;;;;;7.14;100.00;96904.32;107102;1300;22527;-88
2024/02/29 03:50:06;;;;;;;;;;;;;;;7.16;100.00;96904.32;107051;1289;22702;-88
2024/02/29 03:52:32;;;;;;;;;;;;;;;7.15;100.00;96900.77;107080;1298;22527;-88
2024/02/29 03:54:59;;;;;;;;;;;;;;;7.14;100.00;96900.98;107096;1301;25974;-88
2024/02/29 03:57:25;;;;;;;;;;;;;;;7.12;100.00;96902.59;106840;1293;24257;-88
2024/02/29 03:59:52;;;;;;;;;;;;;;;7.10;100.00;96899.86;107126;1300;23832;-89
2024/02/29 04:02:19;;;;;;;;;;;;;;;7.09;100.00;96893.33;106890;1294;22550;-88
2024/02/29 04:04:46;;;;;;;;;;;;;;;7.09;100.00;96893.46;107013;1295;22590;-88
2024/02/29 04:07:12;;;;;;;;;;;;;;;7.11;100.00;96894.61;106765;1300;22586;-89
2024/02/29 04:09:39;;;;;;;;;;;;;;;7.13;100.00;96890.94;107028;1300;22603;-88
2024/02/29 04:12:06;;;;;;;;;;;;;;;7.14;100.00;96892.05;106907;1300;22628;-89
2024/02/29 04:14:38;;;;;;;;;;;;;;;7.13;100.00;96893.33;107031;1295;23833;-88
2024/02/29 04:17:04;;;;;;;;;;;;;;;7.12;100.00;96897.65;106918;1301;22641;-88
2024/02/29 04:19:31;;;;;;;;;;;;;;;7.10;100.00;96894.70;107064;1298;22799;-88
2024/02/29 04:21:57;;;;;;;;;;;;;;;7.08;100.00;96892.64;107048;1298;22634;-88
2024/02/29 04:24:24;;;;;;;;;;;;;;;7.07;100.00;96887.92;106881;1300;22933;-88
2024/02/29 04:26:51;;;;;;;;;;;;;;;7.06;100.00;96883.13;107076;1299;22513;-88
2024/02/29 04:29:17;;;;;;;;;;;;;;;7.04;100.00;96876.86;106939;1298;23356;-88
2024/02/29 04:31:47;;;;;;;;;;;;;;;7.05;100.00;96874.73;106928;1300;22586;-88
2024/02/29 04:34:14;;;;;;;;;;;;;;;7.07;100.00;96874.70;107020;1295;22568;-88
2024/02/29 04:36:41;;;;;;;;;;;;;;;7.10;100.00;96873.83;107060;1300;22576;-88
2024/02/29 04:39:07;;;;;;;;;;;;;;;7.12;100.00;96871.61;107055;1300;22676;-88
2024/02/29 04:41:34;;;;;;;;;;;;;;;7.13;100.00;96866.55;107033;1298;22594;-88
2024/02/29 04:44:00;;;;;;;;;;;;;;;7.13;100.00;96865.65;107022;1295;22577;-88
2024/02/29 04:46:27;;;;;;;;;;;;;;;7.14;100.00;96868.49;106922;1300;22532;-89
2024/02/29 04:48:54;;;;;;;;;;;;;;;7.15;100.00;96867.04;107045;1295;24974;-89
2024/02/29 04:51:20;;;;;;;;;;;;;;;7.15;100.00;96866.34;107073;1298;22489;-88
2024/02/29 04:53:47;;;;;;;;;;;;;;;7.15;100.00;96866.20;106952;1299;22543;-89
2024/02/29 04:56:13;;;;;;;;;;;;;;;7.14;100.00;96866.04;106983;1299;24260;-88
2024/02/29 04:58:40;;;;;;;;;;;;;;;7.14;100.00;96866.40;107132;1295;22616;-88
2024/02/29 05:01:07;;;;;;;;;;;;;;;7.14;100.00;96864.16;106945;1300;22577;-88
2024/02/29 05:03:34;;;;;;;;;;;;;;;7.17;100.00;96862.67;107188;1299;22639;-89
2024/02/29 05:06:01;;;;;;;;;;;;;;;7.19;100.00;96866.16;107114;1300;22520;-89
2024/02/29 05:08:28;;;;;;;;;;;;;;;7.19;100.00;96859.52;107020;1295;22547;-89
2024/02/29 05:10:54;;;;;;;;;;;;;;;7.20;100.00;96859.63;107148;1300;22570;-89
2024/02/29 05:13:21;;;;;;;;;;;;;;;7.21;100.00;96855.52;107013;1285;22625;-88
2024/02/29 05:15:47;;;;;;;;;;;;;;;7.24;100.00;96847.36;107204;1295;22538;-88
2024/02/29 05:18:14;;;;;;;;;;;;;;;7.22;100.00;96843.60;106988;1301;22570;-88
2024/02/29 05:20:40;;;;;;;;;;;;;;;7.17;100.00;96837.86;107098;1294;22587;-88
2024/02/29 05:23:07;;;;;;;;;;;;;;;7.15;100.00;96831.82;107061;1292;22581;-88
2024/02/29 05:25:35;;;;;;;;;;;;;;;7.15;100.00;96832.36;106915;1298;23879;-88
2024/02/29 05:28:02;;;;;;;;;;;;;;;7.11;100.00;96839.17;106917;1301;22636;-87
2024/02/29 05:30:29;;;;;;;;;;;;;;;7.09;100.00;96844.75;107039;1301;22646;-88
2024/02/29 05:32:55;;;;;;;;;;;;;;;7.07;100.00;96841.58;106815;1301;22657;-88
2024/02/29 05:35:26;;;;;;;;;;;;;;;7.09;100.00;96847.11;106998;1298;22542;-88
2024/02/29 05:37:53;;;;;;;;;;;;;;;7.10;100.00;96850.83;106954;1298;22489;-87
2024/02/29 05:40:20;;;;;;;;;;;;;;;7.11;100.00;96850.54;106947;1301;23833;-88
2024/02/29 05:42:46;;;;;;;;;;;;;;;7.11;100.00;96846.44;106932;1301;22578;-88
2024/02/29 05:45:13;;;;;;;;;;;;;;;7.09;100.00;96848.98;106981;1301;24388;-87
2024/02/29 05:47:40;;;;;;;;;;;;;;;7.09;100.00;96856.54;107027;1295;23488;-87
2024/02/29 05:50:07;;;;;;;;;;;;;;;7.11;100.00;96857.73;106907;1301;22690;-88
2024/02/29 05:52:35;;;;;;;;;;;;;;;7.12;100.00;96854.04;107051;1301;23793;-87
2024/02/29 05:55:02;;;;;;;;;;;;;;;7.12;100.00;96850.20;107130;1297;25404;-88
2024/02/29 05:57:32;;;;;;;;;;;;;;;7.13;100.00;96851.20;106928;1300;22569;-88
2024/02/29 06:00:03;;;;;;;;;;;;;;;7.11;100.00;96855.23;107170;1300;23079;-88
2024/02/29 06:02:31;;;;;;;;;;;;;;;7.08;100.00;96858.98;108265;1298;22449;-89
2024/02/29 06:04:58;;;;;;;;;;;;;;;7.10;100.00;96860.75;107835;1296;22563;-88
2024/02/29 06:07:25;;;;;;;;;;;;;;;7.14;100.00;96862.16;107034;1295;22686;-88
2024/02/29 06:09:51;;;;;;;;;;;;;;;7.17;100.00;96860.14;107071;1295;22524;-89
2024/02/29 06:12:18;;;;;;;;;;;;;;;7.19;100.00;96860.94;106920;1300;23911;-89
2024/02/29 06:14:46;;;;;;;;;;;;;;;7.19;100.00;96862.48;107020;1294;22559;-88
2024/02/29 06:17:13;;;;;;;;;;;;;;;7.20;100.00;96861.49;107009;1291;22761;-88
2024/02/29 06:19:40;;;;;;;;;;;;;;;7.21;100.00;96861.65;107074;1300;22642;-88
2024/02/29 06:22:06;;;;;;;;;;;;;;;7.21;100.00;96859.36;107033;1295;22919;-88
2024/02/29 06:24:33;;;;;;;;;;;;;;;7.21;100.00;96858.30;106956;1300;22549;-88
2024/02/29 06:27:00;;;;;;;;;;;;;;;7.21;100.00;96858.48;106878;1301;22636;-89
2024/02/29 06:29:26;;;;;;;;;;;;;;;7.21;100.00;96856.72;107033;1295;22539;-89
2024/02/29 06:31:53;;;;;;;;;;;;;;;7.23;100.00;96857.15;107022;1300;22577;-88
2024/02/29 06:34:19;;;;;;;;;;;;;;;7.25;100.00;96857.29;107035;1300;24333;-88
2024/02/29 06:36:46;;;;;;;;;;;;;;;7.26;100.00;96853.90;106910;1295;22638;-89
2024/02/29 06:39:13;;;;;;;;;;;;;;;7.27;100.00;96852.42;106969;1298;22655;-89
2024/02/29 06:41:41;;;;;;;;;;;;;;;7.27;100.00;96854.17;106939;1295;22556;-88
2024/02/29 06:44:07;;;;;;;;;;;;;;;7.28;100.00;96854.27;107130;1300;23016;-88
2024/02/29 06:46:34;;;;;;;;;;;;;;;7.27;100.00;96860.92;106918;1300;22519;-89
2024/02/29 06:49:00;;;;;;;;;;;;;;;7.28;100.00;96861.30;106981;1300;22612;-89
2024/02/29 06:51:30;;;;;;;;;;;;;;;7.29;100.00;96857.23;106890;1301;24218;-88
2024/02/29 06:53:56;;;;;;;;;;;;;;;7.29;100.00;96854.98;106882;1295;22571;-89
2024/02/29 06:56:23;;;;;;;;;;;;;;;7.30;100.00;96857.02;107166;1300;22564;-88
2024/02/29 06:58:50;;;;;;;;;;;;;;;7.32;100.00;96857.83;106918;1301;22548;-88
2024/02/29 07:01:19;;;;;;;;;;;;;;;7.32;100.00;96851.09;107088;1297;22654;-89
2024/02/29 07:03:48;;;;;;;;;;;;;;;7.29;100.00;96850.52;106980;1298;22530;-88
2024/02/29 07:06:15;;;;;;;;;;;;;;;7.31;100.00;96843.79;107036;1295;22567;-88
2024/02/29 07:08:41;;;;;;;;;;;;;;;7.34;100.00;96839.89;107085;1298;23266;-89
2024/02/29 07:11:11;;;;;;;;;;;;;;;7.39;100.00;96840.73;106907;1295;22539;-89
2024/02/29 07:13:38;;;;;;;;;;;;;;;7.43;100.00;96838.27;106942;1300;22587;-89
2024/02/29 07:16:04;;;;;;;;;;;;;;;7.47;100.00;96839.09;106918;1294;22530;-89
2024/02/29 07:18:31;;;;;;;;;;;;;;;7.47;100.00;96831.77;107167;1292;22553;-88
2024/02/29 07:20:57;;;;;;;;;;;;;;;7.49;100.00;96835.90;106942;1288;22598;-88
2024/02/29 07:23:24;;;;;;;;;;;;;;;7.51;100.00;96837.33;106831;1300;23926;-89
2024/02/29 07:25:51;;;;;;;;;;;;;;;7.54;100.00;96839.09;107022;1300;22562;-88
2024/02/29 07:28:17;;;;;;;;;;;;;;;7.57;100.00;96836.04;106887;1301;25497;-88
2024/02/29 07:30:44;;;;;;;;;;;;;;;7.61;100.00;96832.20;107027;1301;25407;-88
2024/02/29 07:33:10;;;;;;;;;;;;;;;7.65;100.00;96832.46;107048;1300;24858;-89
2024/02/29 07:35:38;;;;;;;;;;;;;;;7.69;100.00;96826.87;106994;1294;24008;-88
2024/02/29 07:38:04;;;;;;;;;;;;;;;7.75;100.00;96826.48;107186;1300;22553;-88
2024/02/29 07:40:31;;;;;;;;;;;;;;;7.80;100.00;96823.55;107098;1295;22579;-88
2024/02/29 07:42:57;;;;;;;;;;;;;;;7.83;100.00;96814.48;107132;1300;25279;-85
2024/02/29 07:45:24;;;;;;;;;;;;;;;7.88;100.00;96812.23;107085;1300;25214;-85
2024/02/29 07:47:50;;;;;;;;;;;;;;;7.93;100.00;96813.92;106848;1300;23484;-84
2024/02/29 07:50:17;;;;;;;;;;;;;;;7.98;100.00;96811.21;107022;1295;25228;-88
2024/02/29 07:52:44;;;;;;;;;;;;;;;8.03;100.00;96807.91;107172;1300;24048;-88
2024/02/29 07:55:14;;;;;;;;;;;;;;;8.07;100.00;96808.95;106927;1288;22600;-88
2024/02/29 07:57:41;;;;;;;;;;;;;;;8.10;100.00;96816.65;107037;1300;23226;-89
2024/02/29 08:00:07;;;;;;;;;;;;;;;8.13;100.00;96813.25;107160;1300;22527;-88
2024/02/29 08:02:34;;;;;;;;;;;;;;;8.16;100.00;96811.45;106925;1292;22750;-88
2024/02/29 08:05:01;;;;;;;;;;;;;;;8.20;100.00;96810.71;107109;1298;22543;-88
2024/02/29 08:07:27;;;;;;;;;;;;;;;8.26;100.00;96814.06;106882;1295;22528;-88
2024/02/29 08:09:54;;;;;;;;;;;;;;;8.30;100.00;96814.48;106884;1292;22541;-88
2024/02/29 08:12:20;;;;;;;;;;;;;;;8.35;100.00;96811.73;107139;1298;23887;-88
2024/02/29 08:14:47;;;;;;;;;;;;;;;8.38;100.00;96807.83;106852;1292;22632;-88
2024/02/29 08:17:13;;;;;;;;;;;;;;;8.43;100.00;96811.10;107181;1288;22606;-89
2024/02/29 08:19:40;;;;;;;;;;;;;;;8.46;100.00;96805.43;106992;1294;22611;-88
2024/02/29 08:22:06;;;;;;;;;;;;;;;8.49;100.00;96808.30;106905;1295;24002;-88
2024/02/29 08:24:33;;;;;;;;;;;;;;;8.52;100.00;96803.34;106982;1300;22676;-88
2024/02/29 08:26:59;;;;;;;;;;;;;;;8.57;100.00;96803.77;106767;1298;22614;-88
2024/02/29 08:29:26;;;;;;;;;;;;;;;8.63;100.00;96805.21;106941;1299;22561;-88
2024/02/29 08:31:52;;;;;;;;;;;;;;;8.70;100.00;96803.83;106952;1295;22530;-85
2024/02/29 08:34:19;;;;;;;;;;;;;;;8.76;100.00;96804.96;107098;1293;22578;-85
2024/02/29 08:36:49;;;;;;;;;;;;;;;8.82;100.00;96801.95;106794;1297;22904;-84
2024/02/29 08:39:17;;;;;;;;;;;;;;;8.88;100.00;96804.73;106899;1300;22521;-85
2024/02/29 08:41:44;;;;;;;;;;;;;;;8.95;100.00;96802.57;106988;1297;22546;-85
2024/02/29 08:44:11;;;;;;;;;;;;;;;9.01;100.00;96804.00;106951;1295;23888;-85
2024/02/29 08:46:37;;;;;;;;;;;;;;;9.03;100.00;96801.37;106956;1298;24315;-85
2024/02/29 08:49:05;;;;;;;;;;;;;;;9.03;100.00;96799.81;106964;1294;22527;-85
2024/02/29 08:51:31;;;;;;;;;;;;;;;9.08;100.00;96801.55;107172;1300;24232;-85
2024/02/29 08:53:58;;;;;;;;;;;;;;;9.11;100.00;96800.58;107077;1300;22590;-85
2024/02/29 08:56:24;;;;;;;;;;;;;;;9.13;100.00;96799.27;107115;1300;25273;-85
2024/02/29 08:58:51;;;;;;;;;;;;;;;9.18;100.00;96795.54;107104;1300;25411;-84
2024/02/29 09:01:19;;;;;;;;;;;;;;;9.21;100.00;96796.05;107142;1300;25245;-85
2024/02/29 09:03:45;;;;;;;;;;;;;;;9.22;100.00;96795.56;107122;1292;22547;-85
2024/02/29 09:06:13;;;;;;;;;;;;;;;9.24;100.00;96792.22;106913;1294;22663;-85
2024/02/29 09:08:40;;;;;;;;;;;;;;;9.25;100.00;96792.48;107057;1292;22991;-85
2024/02/29 09:11:06;;;;;;;;;;;;;;;9.28;100.00;96791.10;106880;1300;22548;-84
2024/02/29 09:13:33;;;;;;;;;;;;;;;9.33;100.00;96792.97;107043;1300;22534;-85
2024/02/29 09:15:59;;;;;;;;;;;;;;;9.37;100.00;96791.73;106941;1297;25436;-85
2024/02/29 09:18:26;;;;;;;;;;;;;;;9.42;100.00;96791.36;107061;1300;25253;-83
2024/02/29 09:20:53;;;;;;;;;;;;;;;9.47;100.00;96790.14;106311;1301;757103;-85
2024/02/29 09:23:20;;;;;;;;;;;;;;;9.54;100.00;96789.70;107037;1300;25254;-84
2024/02/29 09:25:46;;;;;;;;;;;;;;;9.60;100.00;96788.94;107030;1294;22579;-84
2024/02/29 09:28:13;;;;;;;;;;;;;;;9.63;100.00;96786.52;107156;1300;22926;-84
2024/02/29 09:30:39;;;;;;;;;;;;;;;9.68;100.00;96786.69;107010;1294;22649;-84
2024/02/29 09:33:06;;;;;;;;;;;;;;;9.73;100.00;96783.00;106946;1300;22642;-84
2024/02/29 09:35:32;;;;;;;;;;;;;;;9.82;100.00;96786.85;106941;1300;22849;-84
2024/02/29 09:37:59;;;;;;;;;;;;;;;9.92;100.00;96787.61;107050;1292;22618;-84
2024/02/29 09:40:26;;;;;;;;;;;;;;;10.04;100.00;96788.25;107054;1300;22583;-84
2024/02/29 09:42:53;;;;;;;;;;;;;;;10.10;100.00;96794.70;107165;1293;25945;-84
2024/02/29 09:45:19;;;;;;;;;;;;;;;10.10;100.00;96788.12;106874;1292;22634;-84
2024/02/29 09:47:45;;;;;;;;;;;;;;;10.11;100.00;96784.70;106962;1294;24512;-83
2024/02/29 09:50:12;;;;;;;;;;;;;;;10.12;100.00;96783.85;106925;1300;22552;-84
2024/02/29 09:52:38;;;;;;;;;;;;;;;10.10;100.00;96780.10;107019;1299;23908;-84
2024/02/29 09:55:15;;;;;;;;;;;;;;;10.10;100.00;96776.86;106872;1294;22662;-84
2024/02/29 09:57:42;;;;;;;;;;;;;;;10.13;100.00;96772.36;106976;1292;22560;-84
2024/02/29 10:00:11;;;;;;;;;;;;;;;10.20;100.00;96770.35;107072;1300;22606;-85
2024/02/29 10:02:44;;;;;;;;;;;;;;;10.29;100.00;96769.66;107139;1300;24254;-84
2024/02/29 10:05:10;;;;;;;;;;;;;;;10.32;100.00;96764.44;106902;1295;22524;-84
2024/02/29 10:07:41;;;;;;;;;;;;;;;10.38;100.00;96766.13;107147;1293;22601;-84
2024/02/29 10:10:09;;;;;;;;;;;;;;;10.46;100.00;96762.96;108349;1300;22498;-85
2024/02/29 10:12:35;;;;;;;;;;;;;;;10.53;100.00;96761.03;108382;1297;22512;-85
2024/02/29 10:15:04;;;;;;;;;;;;;;;10.55;100.00;96758.67;108318;1300;22427;-85
2024/02/29 10:17:33;;;;;;;;;;;;;;;10.61;100.00;96754.40;108189;1300;22434;-85
2024/02/29 10:20:00;;;;;;;;;;;;;;;10.69;100.00;96743.09;108194;1295;22523;-85
2024/02/29 10:22:27;;;;;;;;;;;;;;;10.75;100.00;96742.21;106931;1300;22566;-85
2024/02/29 10:24:54;;;;;;;;;;;;;;;10.80;100.00;96736.27;106927;1300;24227;-85
2024/02/29 10:27:22;;;;;;;;;;;;;;;10.87;100.00;96734.67;106939;1300;22539;-85
2024/02/29 10:29:49;;;;;;;;;;;;;;;10.93;100.00;96729.98;106941;1292;22682;-85
2024/02/29 10:32:15;;;;;;;;;;;;;;;11.04;100.00;96726.48;107057;1300;22572;-87
2024/02/29 10:34:44;;;;;;;;;;;;;;;11.10;100.00;96724.03;106802;1297;25411;-88
2024/02/29 10:37:11;;;;;;;;;;;;;;;11.15;100.00;96718.02;106955;1300;22537;-88
2024/02/29 10:39:38;;;;;;;;;;;;;;;11.20;100.00;96715.95;107018;1300;22474;-88
2024/02/29 10:42:05;;;;;;;;;;;;;;;11.24;100.00;96715.48;106944;1300;22565;-88
2024/02/29 10:44:32;;;;;;;;;;;;;;;11.30;100.00;96715.80;107033;1295;22607;-84
2024/02/29 10:47:02;;;;;;;;;;;;;;;11.32;100.00;96714.19;106898;1294;23317;-84
2024/02/29 10:49:38;;;;;;;;;;;;;;;11.36;100.00;96707.77;107054;1300;23358;-84
2024/02/29 10:52:11;;;;;;;;;;;;;;;11.45;100.00;96702.90;107018;1300;24325;-84
2024/02/29 10:54:39;;;;;;;;;;;;;;;11.57;100.00;96699.69;106896;1297;22548;-84
2024/02/29 10:57:07;;;;;;;;;;;;;;;11.67;100.00;96694.30;106989;1295;22572;-84
2024/02/29 10:59:34;;;;;;;;;;;;;;;11.78;100.00;96691.81;106971;1298;22527;-86
2024/02/29 11:02:00;;;;;;;;;;;;;;;11.86;100.00;96693.80;106919;1291;22679;-84
2024/02/29 11:04:27;;;;;;;;;;;;;;;11.88;100.00;96692.00;107023;1294;22645;-84
2024/02/29 11:06:53;;;;;;;;;;;;;;;11.86;100.00;96687.48;106986;1294;22881;-84
2024/02/29 11:09:20;;;;;;;;;;;;;;;11.89;100.00;96690.77;107004;1294;22654;-84
2024/02/29 11:11:47;;;;;;;;;;;;;;;11.94;100.00;96685.34;107010;1300;22592;-84
2024/02/29 11:14:15;;;;;;;;;;;;;;;11.99;100.00;96685.59;106931;1295;22557;-84
2024/02/29 11:16:42;;;;;;;;;;;;;;;12.03;100.00;96680.98;108274;1294;23222;-84
2024/02/29 11:19:13;;;;;;;;;;;;;;;12.07;100.00;96676.04;108427;1292;22445;-85
2024/02/29 11:21:39;;;;;;;;;;;;;;;12.11;100.00;96674.51;108175;1295;23170;-85
2024/02/29 11:24:06;;;;;;;;;;;;;;;12.12;100.00;96674.84;108364;1300;22432;-85
2024/02/29 11:26:33;;;;;;;;;;;;;;;12.14;100.00;96668.69;108196;1295;22484;-85
2024/02/29 11:29:19;;;;;;;;;;;;;;;12.17;100.00;96669.95;108315;1295;22432;-85
2024/02/29 11:31:49;;;;;;;;;;;;;;;12.20;100.00;96669.45;107263;1292;24336;-84
2024/02/29 11:34:20;;;;;;;;;;;;;;;12.23;100.00;96666.83;106763;1300;22523;-84
2024/02/29 11:36:51;;;;;;;;;;;;;;;12.25;100.00;96665.29;106925;1295;22542;-84
2024/02/29 11:39:20;;;;;;;;;;;;;;;12.29;100.00;96659.59;107015;1299;22670;-88
2024/02/29 11:41:47;;;;;;;;;;;;;;;12.31;100.00;96657.92;106908;1301;22660;-88
2024/02/29 11:44:13;;;;;;;;;;;;;;;12.32;100.00;96655.04;106957;1294;22527;-88
2024/02/29 11:46:47;;;;;;;;;;;;;;;12.33;100.00;96653.48;106995;1297;23904;-88
2024/02/29 11:49:14;;;;;;;;;;;;;;;12.38;100.00;96654.20;108272;1301;23222;-88
2024/02/29 11:51:41;;;;;;;;;;;;;;;12.42;100.00;96650.25;108246;1295;22429;-89
2024/02/29 11:54:09;;;;;;;;;;;;;;;12.44;100.00;96644.42;108219;1297;22430;-88
2024/02/29 11:56:36;;;;;;;;;;;;;;;12.45;100.00;96637.89;108392;1292;22430;-88
2024/02/29 11:59:02;;;;;;;;;;;;;;;12.46;100.00;96639.14;107231;1295;22765;-88
2024/02/29 12:01:29;;;;;;;;;;;;;;;12.46;100.00;96641.71;107109;1295;22564;-88
2024/02/29 12:03:55;;;;;;;;;;;;;;;12.47;100.00;96637.74;106948;1298;25417;-88
2024/02/29 12:06:22;;;;;;;;;;;;;;;12.49;100.00;96633.02;106936;1291;25332;-88
2024/02/29 12:08:48;;;;;;;;;;;;;;;12.50;100.00;96631.02;107082;1292;22531;-88
2024/02/29 12:11:15;;;;;;;;;;;;;;;12.49;100.00;96630.22;106922;1292;24291;-88
2024/02/29 12:13:42;;;;;;;;;;;;;;;12.45;100.00;96625.70;107113;1298;22640;-88
2024/02/29 12:16:09;;;;;;;;;;;;;;;12.41;100.00;96620.26;107159;1300;24828;-88
2024/02/29 12:18:35;;;;;;;;;;;;;;;12.40;100.00;96620.21;107112;1300;22559;-88
2024/02/29 12:21:05;;;;;;;;;;;;;;;12.40;100.00;96614.39;107165;1294;23132;-88
2024/02/29 12:23:32;;;;;;;;;;;;;;;12.38;100.00;96615.59;107093;1300;23404;-88
2024/02/29 12:26:08;;;;;;;;;;;;;;;12.40;100.00;96613.87;107143;1295;23414;-88
2024/02/29 12:28:35;;;;;;;;;;;;;;;12.40;100.00;96608.06;107130;1298;22655;-88
2024/02/29 12:31:01;;;;;;;;;;;;;;;12.40;100.00;96607.34;107117;1300;23399;-88
2024/02/29 12:33:29;;;;;;;;;;;;;;;12.39;100.00;96600.40;107158;1285;23512;-88